Pomona, Missouri
Current Conditions -  °F | °C
As of 11:53 AM on Thursday 30 Oct 2014 (Local Time) from KUNO Reporting Station
Few Clouds Few Clouds  
Wind Chill: 58°   Ceiling: Unl
Heat Index: 58°   Visibility: 10mi
Dew Point: 35°   Wind: 6mph
Humidity: 42%   Direction: 160°SSE
Pressure: 30.13"   Gusts: NA
Location:  36.87°N, 91.91°W
Report Text: KUNO 301653Z AUTO 16005KT 10SM FEW120 14/02 A3013 RMK AO2 SLP203 T01440017
Loading
Personal Weather Stations






























Interactive Weather Map New forecast layout! Learn more

10-Day Weather Forecast

Advertisements
Track Severe Weather on mobile